sensor_id;sensor_type;location;lat;lon;timestamp;pressure;altitude;pressure_sealevel;temperature;humidity
31082;BME280;17737;52.586;13.284;2023-01-30T00:01:23;100850.03;;;1.60;77.45
31082;BME280;17737;52.586;13.284;2023-01-30T00:03:52;100821.56;;;1.62;77.20
31082;BME280;17737;52.586;13.284;2023-01-30T00:06:21;100833.25;;;1.59;77.23
31082;BME280;17737;52.586;13.284;2023-01-30T00:08:49;100815.06;;;1.66;77.43
31082;BME280;17737;52.586;13.284;2023-01-30T00:11:18;100809.63;;;1.67;77.08
31082;BME280;17737;52.586;13.284;2023-01-30T00:13:49;100810.72;;;1.65;77.07
31082;BME280;17737;52.586;13.284;2023-01-30T00:16:17;100814.00;;;1.68;76.99
31082;BME280;17737;52.586;13.284;2023-01-30T00:18:46;100799.34;;;1.63;77.23
31082;BME280;17737;52.586;13.284;2023-01-30T00:21:14;100806.97;;;1.67;77.33
31082;BME280;17737;52.586;13.284;2023-01-30T00:23:42;100797.34;;;1.66;77.46
31082;BME280;17737;52.586;13.284;2023-01-30T00:26:11;100785.63;;;1.69;77.50
31082;BME280;17737;52.586;13.284;2023-01-30T00:28:39;100770.53;;;1.69;77.24
31082;BME280;17737;52.586;13.284;2023-01-30T00:31:09;100757.38;;;1.68;77.44
31082;BME280;17737;52.586;13.284;2023-01-30T00:33:37;100747.00;;;1.65;77.00
31082;BME280;17737;52.586;13.284;2023-01-30T00:36:06;100738.06;;;1.66;77.68
31082;BME280;17737;52.586;13.284;2023-01-30T00:38:34;100722.84;;;1.68;77.40
31082;BME280;17737;52.586;13.284;2023-01-30T00:41:03;100712.84;;;1.71;77.38
31082;BME280;17737;52.586;13.284;2023-01-30T00:43:31;100693.88;;;1.65;76.94
31082;BME280;17737;52.586;13.284;2023-01-30T00:46:23;100678.88;;;1.64;77.46
31082;BME280;17737;52.586;13.284;2023-01-30T00:49:14;100672.75;;;1.63;77.44
31082;BME280;17737;52.586;13.284;2023-01-30T00:51:43;100656.19;;;1.60;77.35
31082;BME280;17737;52.586;13.284;2023-01-30T00:54:11;100661.03;;;1.66;77.38
31082;BME280;17737;52.586;13.284;2023-01-30T00:56:39;100674.44;;;1.64;77.44
31082;BME280;17737;52.586;13.284;2023-01-30T00:59:08;100663.25;;;1.72;77.58
31082;BME280;17737;52.586;13.284;2023-01-30T01:01:37;100666.13;;;1.69;77.12
31082;BME280;17737;52.586;13.284;2023-01-30T01:04:06;100668.34;;;1.75;77.48
31082;BME280;17737;52.586;13.284;2023-01-30T01:06:36;100649.75;;;1.75;77.43
31082;BME280;17737;52.586;13.284;2023-01-30T01:09:05;100640.19;;;1.72;77.78
31082;BME280;17737;52.586;13.284;2023-01-30T01:11:34;100632.00;;;1.75;77.26
31082;BME280;17737;52.586;13.284;2023-01-30T01:14:03;100605.78;;;1.71;77.24
31082;BME280;17737;52.586;13.284;2023-01-30T01:16:33;100573.91;;;1.71;77.83
31082;BME280;17737;52.586;13.284;2023-01-30T01:19:03;100595.16;;;1.71;77.47
31082;BME280;17737;52.586;13.284;2023-01-30T01:21:31;100587.19;;;1.71;77.35
31082;BME280;17737;52.586;13.284;2023-01-30T01:23:59;100580.44;;;1.67;77.47
31082;BME280;17737;52.586;13.284;2023-01-30T01:26:27;100574.38;;;1.65;77.45
31082;BME280;17737;52.586;13.284;2023-01-30T01:28:56;100581.38;;;1.66;77.88
31082;BME280;17737;52.586;13.284;2023-01-30T01:31:25;100580.31;;;1.68;77.60
31082;BME280;17737;52.586;13.284;2023-01-30T01:33:53;100568.84;;;1.68;77.97
31082;BME280;17737;52.586;13.284;2023-01-30T01:36:23;100577.53;;;1.70;77.96
31082;BME280;17737;52.586;13.284;2023-01-30T01:39:11;100582.38;;;1.76;77.72
31082;BME280;17737;52.586;13.284;2023-01-30T01:41:39;100599.03;;;1.78;77.97
31082;BME280;17737;52.586;13.284;2023-01-30T01:44:07;100591.06;;;1.78;78.11
31082;BME280;17737;52.586;13.284;2023-01-30T01:46:39;100592.53;;;1.82;77.99
31082;BME280;17737;52.586;13.284;2023-01-30T01:49:14;100589.16;;;1.80;78.03
31082;BME280;17737;52.586;13.284;2023-01-30T01:51:52;100570.06;;;1.75;78.19
31082;BME280;17737;52.586;13.284;2023-01-30T01:54:28;100577.28;;;1.73;78.60
31082;BME280;17737;52.586;13.284;2023-01-30T01:57:04;100553.41;;;1.73;78.81
31082;BME280;17737;52.586;13.284;2023-01-30T01:59:43;100541.78;;;1.63;80.00
31082;BME280;17737;52.586;13.284;2023-01-30T02:02:16;100525.34;;;1.58;80.60
31082;BME280;17737;52.586;13.284;2023-01-30T02:04:48;100521.34;;;1.41;81.50
31082;BME280;17737;52.586;13.284;2023-01-30T02:07:35;100505.75;;;1.37;83.12
31082;BME280;17737;52.586;13.284;2023-01-30T02:10:12;100499.81;;;1.33;83.21
31082;BME280;17737;52.586;13.284;2023-01-30T02:12:45;100497.28;;;1.32;83.34
31082;BME280;17737;52.586;13.284;2023-01-30T02:15:18;100471.09;;;1.27;83.20
31082;BME280;17737;52.586;13.284;2023-01-30T02:17:46;100480.75;;;1.28;83.69
31082;BME280;17737;52.586;13.284;2023-01-30T02:20:24;100469.06;;;1.31;83.57
31082;BME280;17737;52.586;13.284;2023-01-30T02:26:53;100463.50;;;1.34;84.02
31082;BME280;17737;52.586;13.284;2023-01-30T02:32:49;100450.44;;;1.19;85.51
31082;BME280;17737;52.586;13.284;2023-01-30T02:35:37;100448.63;;;1.20;86.56
31082;BME280;17737;52.586;13.284;2023-01-30T02:38:28;100440.53;;;1.10;87.24
31082;BME280;17737;52.586;13.284;2023-01-30T02:41:13;100432.22;;;1.15;86.71
31082;BME280;17737;52.586;13.284;2023-01-30T02:43:57;100423.69;;;1.23;86.54
31082;BME280;17737;52.586;13.284;2023-01-30T02:46:36;100407.25;;;1.17;85.69
31082;BME280;17737;52.586;13.284;2023-01-30T02:49:19;100413.91;;;1.23;85.85
31082;BME280;17737;52.586;13.284;2023-01-30T02:51:55;100421.84;;;1.23;85.81
31082;BME280;17737;52.586;13.284;2023-01-30T02:54:26;100411.13;;;1.24;85.98
31082;BME280;17737;52.586;13.284;2023-01-30T02:56:57;100407.41;;;1.27;85.86
31082;BME280;17737;52.586;13.284;2023-01-30T02:59:28;100403.44;;;1.33;85.47
31082;BME280;17737;52.586;13.284;2023-01-30T03:05:32;100382.34;;;1.42;84.32
31082;BME280;17737;52.586;13.284;2023-01-30T03:08:16;100379.31;;;1.47;84.23
31082;BME280;17737;52.586;13.284;2023-01-30T03:10:54;100374.47;;;1.52;83.60
31082;BME280;17737;52.586;13.284;2023-01-30T03:13:36;100351.19;;;1.55;83.58
31082;BME280;17737;52.586;13.284;2023-01-30T03:16:14;100367.72;;;1.59;83.31
31082;BME280;17737;52.586;13.284;2023-01-30T03:18:46;100357.59;;;1.64;83.48
31082;BME280;17737;52.586;13.284;2023-01-30T03:21:16;100345.78;;;1.68;83.00
31082;BME280;17737;52.586;13.284;2023-01-30T03:23:45;100355.31;;;1.70;83.16
31082;BME280;17737;52.586;13.284;2023-01-30T03:26:19;100347.34;;;1.70;83.07
31082;BME280;17737;52.586;13.284;2023-01-30T03:28:51;100348.19;;;1.82;83.32
31082;BME280;17737;52.586;13.284;2023-01-30T03:31:20;100336.44;;;1.84;83.11
31082;BME280;17737;52.586;13.284;2023-01-30T03:33:48;100337.03;;;1.88;83.03
31082;BME280;17737;52.586;13.284;2023-01-30T03:36:18;100332.47;;;1.90;82.86
31082;BME280;17737;52.586;13.284;2023-01-30T03:38:46;100328.47;;;1.95;82.44
31082;BME280;17737;52.586;13.284;2023-01-30T03:41:14;100321.91;;;1.99;82.81
31082;BME280;17737;52.586;13.284;2023-01-30T03:43:42;100325.44;;;2.00;83.13
31082;BME280;17737;52.586;13.284;2023-01-30T03:46:10;100313.25;;;1.97;83.23
31082;BME280;17737;52.586;13.284;2023-01-30T03:48:38;100308.91;;;1.96;83.25
31082;BME280;17737;52.586;13.284;2023-01-30T03:51:06;100305.38;;;1.96;83.77
31082;BME280;17737;52.586;13.284;2023-01-30T03:53:35;100290.44;;;1.95;83.98
31082;BME280;17737;52.586;13.284;2023-01-30T03:56:03;100285.72;;;1.98;84.10
31082;BME280;17737;52.586;13.284;2023-01-30T03:58:32;100290.75;;;2.01;84.08
31082;BME280;17737;52.586;13.284;2023-01-30T04:01:00;100276.88;;;1.98;83.91
31082;BME280;17737;52.586;13.284;2023-01-30T04:03:28;100271.34;;;2.01;83.94
31082;BME280;17737;52.586;13.284;2023-01-30T04:05:56;100268.44;;;2.04;83.79
31082;BME280;17737;52.586;13.284;2023-01-30T04:08:24;100263.44;;;2.10;83.72
31082;BME280;17737;52.586;13.284;2023-01-30T04:10:54;100251.72;;;2.13;83.08
31082;BME280;17737;52.586;13.284;2023-01-30T04:13:22;100236.94;;;2.20;82.59
31082;BME280;17737;52.586;13.284;2023-01-30T04:15:50;100248.09;;;2.14;82.99
31082;BME280;17737;52.586;13.284;2023-01-30T04:18:18;100245.91;;;2.19;82.98
31082;BME280;17737;52.586;13.284;2023-01-30T04:20:46;100243.25;;;2.19;82.75
31082;BME280;17737;52.586;13.284;2023-01-30T04:23:14;100237.66;;;2.22;82.79
31082;BME280;17737;52.586;13.284;2023-01-30T04:25:45;100233.34;;;2.21;82.46
31082;BME280;17737;52.586;13.284;2023-01-30T04:28:15;100233.94;;;2.24;82.68
31082;BME280;17737;52.586;13.284;2023-01-30T04:30:43;100231.47;;;2.32;82.19
31082;BME280;17737;52.586;13.284;2023-01-30T04:33:11;100225.28;;;2.32;81.90
31082;BME280;17737;52.586;13.284;2023-01-30T04:35:39;100228.94;;;2.31;81.59
31082;BME280;17737;52.586;13.284;2023-01-30T04:38:07;100233.13;;;2.33;82.11
31082;BME280;17737;52.586;13.284;2023-01-30T04:40:35;100221.31;;;2.26;83.03
31082;BME280;17737;52.586;13.284;2023-01-30T04:43:03;100225.50;;;2.19;84.20
31082;BME280;17737;52.586;13.284;2023-01-30T04:45:32;100220.53;;;2.15;84.46
31082;BME280;17737;52.586;13.284;2023-01-30T04:48:00;100206.94;;;2.08;84.31
31082;BME280;17737;52.586;13.284;2023-01-30T04:50:28;100206.06;;;2.08;84.65
31082;BME280;17737;52.586;13.284;2023-01-30T04:52:56;100212.50;;;2.05;85.48
31082;BME280;17737;52.586;13.284;2023-01-30T04:55:24;100199.34;;;2.04;85.85
31082;BME280;17737;52.586;13.284;2023-01-30T04:57:52;100199.72;;;1.99;86.17
31082;BME280;17737;52.586;13.284;2023-01-30T05:00:21;100199.25;;;1.94;87.29
31082;BME280;17737;52.586;13.284;2023-01-30T05:02:50;100189.88;;;1.90;87.69
31082;BME280;17737;52.586;13.284;2023-01-30T05:05:18;100190.59;;;1.92;88.26
31082;BME280;17737;52.586;13.284;2023-01-30T05:07:46;100182.13;;;1.87;88.48
31082;BME280;17737;52.586;13.284;2023-01-30T05:10:14;100189.63;;;1.82;89.18
31082;BME280;17737;52.586;13.284;2023-01-30T05:12:43;100190.50;;;1.83;89.45
31082;BME280;17737;52.586;13.284;2023-01-30T05:15:12;100172.28;;;1.78;89.64
31082;BME280;17737;52.586;13.284;2023-01-30T05:17:40;100175.91;;;1.77;90.17
31082;BME280;17737;52.586;13.284;2023-01-30T05:20:12;100176.34;;;1.82;89.92
31082;BME280;17737;52.586;13.284;2023-01-30T05:22:40;100167.44;;;1.83;89.95
31082;BME280;17737;52.586;13.284;2023-01-30T05:25:09;100165.03;;;1.80;89.63
31082;BME280;17737;52.586;13.284;2023-01-30T05:27:37;100157.91;;;1.81;89.55
31082;BME280;17737;52.586;13.284;2023-01-30T05:30:06;100152.44;;;1.82;89.94
31082;BME280;17737;52.586;13.284;2023-01-30T05:32:35;100153.44;;;1.81;89.70
31082;BME280;17737;52.586;13.284;2023-01-30T05:35:03;100161.16;;;1.84;89.63
31082;BME280;17737;52.586;13.284;2023-01-30T05:37:33;100148.72;;;1.85;89.69
31082;BME280;17737;52.586;13.284;2023-01-30T05:40:04;100133.75;;;1.84;90.38
31082;BME280;17737;52.586;13.284;2023-01-30T05:42:32;100133.75;;;1.84;90.14
31082;BME280;17737;52.586;13.284;2023-01-30T05:45:00;100126.63;;;1.84;90.15
31082;BME280;17737;52.586;13.284;2023-01-30T05:47:28;100119.50;;;1.85;90.14
31082;BME280;17737;52.586;13.284;2023-01-30T05:49:56;100109.72;;;1.85;90.24
31082;BME280;17737;52.586;13.284;2023-01-30T05:52:24;100098.97;;;1.87;90.55
31082;BME280;17737;52.586;13.284;2023-01-30T05:54:53;100102.09;;;1.92;90.19
31082;BME280;17737;52.586;13.284;2023-01-30T05:57:21;100098.31;;;1.94;90.88
31082;BME280;17737;52.586;13.284;2023-01-30T05:59:49;100091.91;;;1.97;90.76
31082;BME280;17737;52.586;13.284;2023-01-30T06:02:17;100110.09;;;2.01;90.50
31082;BME280;17737;52.586;13.284;2023-01-30T06:04:45;100098.00;;;2.08;90.55
31082;BME280;17737;52.586;13.284;2023-01-30T06:07:13;100105.97;;;2.08;90.79
31082;BME280;17737;52.586;13.284;2023-01-30T06:09:41;100103.88;;;2.12;91.02
31082;BME280;17737;52.586;13.284;2023-01-30T06:12:10;100103.63;;;2.15;90.83
31082;BME280;17737;52.586;13.284;2023-01-30T06:14:38;100098.06;;;2.18;90.83
31082;BME280;17737;52.586;13.284;2023-01-30T06:17:06;100102.13;;;2.22;91.04
31082;BME280;17737;52.586;13.284;2023-01-30T06:19:34;100089.56;;;2.24;91.03
31082;BME280;17737;52.586;13.284;2023-01-30T06:22:02;100091.66;;;2.30;91.06
31082;BME280;17737;52.586;13.284;2023-01-30T06:24:30;100096.03;;;2.31;91.28
31082;BME280;17737;52.586;13.284;2023-01-30T06:26:58;100093.94;;;2.34;91.06
31082;BME280;17737;52.586;13.284;2023-01-30T06:29:27;100095.34;;;2.38;91.03
31082;BME280;17737;52.586;13.284;2023-01-30T06:31:55;100092.59;;;2.40;90.83
31082;BME280;17737;52.586;13.284;2023-01-30T06:34:23;100094.97;;;2.43;90.92
31082;BME280;17737;52.586;13.284;2023-01-30T06:36:51;100094.44;;;2.49;90.98
31082;BME280;17737;52.586;13.284;2023-01-30T06:39:19;100085.53;;;2.60;90.72
31082;BME280;17737;52.586;13.284;2023-01-30T06:41:47;100090.25;;;2.56;91.02
31082;BME280;17737;52.586;13.284;2023-01-30T06:44:15;100088.91;;;2.62;90.62
31082;BME280;17737;52.586;13.284;2023-01-30T06:46:45;100081.78;;;2.72;90.83
31082;BME280;17737;52.586;13.284;2023-01-30T06:49:12;100095.53;;;2.77;90.21
31082;BME280;17737;52.586;13.284;2023-01-30T06:51:40;100075.09;;;2.77;90.36
31082;BME280;17737;52.586;13.284;2023-01-30T06:54:08;100073.84;;;2.81;90.32
31082;BME280;17737;52.586;13.284;2023-01-30T06:56:39;100082.13;;;2.88;90.33
31082;BME280;17737;52.586;13.284;2023-01-30T06:59:07;100077.34;;;2.91;90.23
31082;BME280;17737;52.586;13.284;2023-01-30T07:01:35;100076.69;;;2.99;90.12
31082;BME280;17737;52.586;13.284;2023-01-30T07:04:05;100068.84;;;3.07;90.19
31082;BME280;17737;52.586;13.284;2023-01-30T07:06:33;100060.19;;;3.14;90.11
31082;BME280;17737;52.586;13.284;2023-01-30T07:09:01;100055.97;;;3.12;90.30
31082;BME280;17737;52.586;13.284;2023-01-30T07:11:29;100056.00;;;3.21;90.25
31082;BME280;17737;52.586;13.284;2023-01-30T07:13:58;100056.28;;;3.28;90.00
31082;BME280;17737;52.586;13.284;2023-01-30T07:16:26;100055.16;;;3.30;89.98
31082;BME280;17737;52.586;13.284;2023-01-30T07:18:56;100051.25;;;3.34;90.00
31082;BME280;17737;52.586;13.284;2023-01-30T07:21:26;100059.09;;;3.36;90.11
31082;BME280;17737;52.586;13.284;2023-01-30T07:23:54;100052.09;;;3.35;90.15
31082;BME280;17737;52.586;13.284;2023-01-30T07:26:22;100048.28;;;3.37;90.32
31082;BME280;17737;52.586;13.284;2023-01-30T07:28:51;100043.97;;;3.36;90.30
31082;BME280;17737;52.586;13.284;2023-01-30T07:31:19;100051.66;;;3.39;90.53
31082;BME280;17737;52.586;13.284;2023-01-30T07:33:47;100050.00;;;3.38;90.89
31082;BME280;17737;52.586;13.284;2023-01-30T07:36:15;100062.88;;;3.43;90.75
31082;BME280;17737;52.586;13.284;2023-01-30T07:38:46;100062.75;;;3.35;91.75
31082;BME280;17737;52.586;13.284;2023-01-30T07:41:15;100070.88;;;3.33;91.66
31082;BME280;17737;52.586;13.284;2023-01-30T07:43:43;100061.59;;;3.37;92.01
31082;BME280;17737;52.586;13.284;2023-01-30T07:46:11;100065.56;;;3.33;91.90
31082;BME280;17737;52.586;13.284;2023-01-30T07:48:39;100069.59;;;3.37;92.08
31082;BME280;17737;52.586;13.284;2023-01-30T07:51:07;100076.75;;;3.37;91.81
31082;BME280;17737;52.586;13.284;2023-01-30T07:53:36;100065.13;;;3.38;92.22
31082;BME280;17737;52.586;13.284;2023-01-30T07:56:07;100071.72;;;3.43;92.14
31082;BME280;17737;52.586;13.284;2023-01-30T07:58:35;100061.06;;;3.43;91.97
31082;BME280;17737;52.586;13.284;2023-01-30T08:01:04;100081.66;;;3.41;92.01
31082;BME280;17737;52.586;13.284;2023-01-30T08:03:32;100075.06;;;3.36;92.75
31082;BME280;17737;52.586;13.284;2023-01-30T08:06:00;100084.63;;;3.38;92.67
31082;BME280;17737;52.586;13.284;2023-01-30T08:08:28;100085.19;;;3.42;93.02
31082;BME280;17737;52.586;13.284;2023-01-30T08:10:56;100081.81;;;3.40;92.93
31082;BME280;17737;52.586;13.284;2023-01-30T08:13:26;100082.38;;;3.43;92.73
31082;BME280;17737;52.586;13.284;2023-01-30T08:15:54;100076.47;;;3.49;93.41
31082;BME280;17737;52.586;13.284;2023-01-30T08:18:22;100065.81;;;3.49;93.04
31082;BME280;17737;52.586;13.284;2023-01-30T08:20:49;100074.22;;;3.54;92.89
31082;BME280;17737;52.586;13.284;2023-01-30T08:23:18;100056.88;;;3.50;92.71
31082;BME280;17737;52.586;13.284;2023-01-30T08:25:45;100045.06;;;3.53;92.70
31082;BME280;17737;52.586;13.284;2023-01-30T08:28:13;100043.25;;;3.53;92.70
31082;BME280;17737;52.586;13.284;2023-01-30T08:30:43;100066.38;;;3.53;93.25
31082;BME280;17737;52.586;13.284;2023-01-30T08:33:11;100075.34;;;3.61;93.00
31082;BME280;17737;52.586;13.284;2023-01-30T08:35:39;100080.81;;;3.60;92.95
31082;BME280;17737;52.586;13.284;2023-01-30T08:38:07;100071.72;;;3.62;92.63
31082;BME280;17737;52.586;13.284;2023-01-30T08:40:35;100063.56;;;3.54;92.71
31082;BME280;17737;52.586;13.284;2023-01-30T08:43:04;100058.00;;;3.57;93.64
31082;BME280;17737;52.586;13.284;2023-01-30T08:45:33;100070.59;;;3.65;93.05
31082;BME280;17737;52.586;13.284;2023-01-30T08:48:04;100072.81;;;3.69;92.59
31082;BME280;17737;52.586;13.284;2023-01-30T08:50:33;100068.63;;;3.77;92.64
31082;BME280;17737;52.586;13.284;2023-01-30T08:53:05;100062.19;;;3.79;92.27
31082;BME280;17737;52.586;13.284;2023-01-30T08:55:36;100060.63;;;3.86;92.38
31082;BME280;17737;52.586;13.284;2023-01-30T08:58:04;100061.44;;;3.87;92.36
31082;BME280;17737;52.586;13.284;2023-01-30T09:00:32;100059.91;;;3.94;91.78
31082;BME280;17737;52.586;13.284;2023-01-30T09:03:00;100059.91;;;3.94;91.54
31082;BME280;17737;52.586;13.284;2023-01-30T09:05:30;100066.34;;;4.01;91.15
31082;BME280;17737;52.586;13.284;2023-01-30T09:07:58;100084.03;;;4.02;91.33
31082;BME280;17737;52.586;13.284;2023-01-30T09:10:26;100069.69;;;4.12;90.73
31082;BME280;17737;52.586;13.284;2023-01-30T09:12:54;100078.22;;;4.25;90.81
31082;BME280;17737;52.586;13.284;2023-01-30T09:15:23;100079.44;;;4.40;90.39
31082;BME280;17737;52.586;13.284;2023-01-30T09:17:51;100082.06;;;4.50;90.06
31082;BME280;17737;52.586;13.284;2023-01-30T09:20:20;100086.56;;;4.49;89.57
31082;BME280;17737;52.586;13.284;2023-01-30T09:22:48;100082.06;;;4.50;89.72
31082;BME280;17737;52.586;13.284;2023-01-30T09:25:16;100076.03;;;4.48;89.79
31082;BME280;17737;52.586;13.284;2023-01-30T09:27:47;100078.16;;;4.44;90.22
31082;BME280;17737;52.586;13.284;2023-01-30T09:30:17;100089.81;;;4.43;89.88
31082;BME280;17737;52.586;13.284;2023-01-30T09:32:46;100083.06;;;4.49;89.82
31082;BME280;17737;52.586;13.284;2023-01-30T09:35:14;100089.38;;;4.48;89.55
31082;BME280;17737;52.586;13.284;2023-01-30T09:37:47;100081.34;;;4.48;89.54
31082;BME280;17737;52.586;13.284;2023-01-30T09:40:19;100082.31;;;4.56;89.10
31082;BME280;17737;52.586;13.284;2023-01-30T09:43:02;100073.19;;;4.59;88.90
31082;BME280;17737;52.586;13.284;2023-01-30T09:45:52;100071.22;;;4.61;88.67
31082;BME280;17737;52.586;13.284;2023-01-30T09:48:36;100075.97;;;4.67;88.64
31082;BME280;17737;52.586;13.284;2023-01-30T09:51:30;100076.19;;;4.83;87.45
31082;BME280;17737;52.586;13.284;2023-01-30T09:54:18;100083.09;;;4.76;88.07
31082;BME280;17737;52.586;13.284;2023-01-30T09:56:57;100077.91;;;4.74;87.30
31082;BME280;17737;52.586;13.284;2023-01-30T09:59:53;100074.09;;;4.77;87.09
31082;BME280;17737;52.586;13.284;2023-01-30T10:02:40;100069.69;;;4.85;85.66
31082;BME280;17737;52.586;13.284;2023-01-30T10:05:16;100072.47;;;4.94;85.28
31082;BME280;17737;52.586;13.284;2023-01-30T10:07:56;100063.31;;;4.96;83.57
31082;BME280;17737;52.586;13.284;2023-01-30T10:10:44;100071.88;;;5.00;84.23
31082;BME280;17737;52.586;13.284;2023-01-30T10:13:32;100073.03;;;5.15;84.15
31082;BME280;17737;52.586;13.284;2023-01-30T10:16:20;100071.75;;;5.19;82.97
31082;BME280;17737;52.586;13.284;2023-01-30T10:19:09;100077.34;;;5.43;83.28
31082;BME280;17737;52.586;13.284;2023-01-30T10:22:08;100072.97;;;5.42;81.83
31082;BME280;17737;52.586;13.284;2023-01-30T10:24:54;100076.97;;;5.38;81.54
31082;BME280;17737;52.586;13.284;2023-01-30T10:27:33;100071.53;;;5.30;81.28
31082;BME280;17737;52.586;13.284;2023-01-30T10:30:05;100070.00;;;5.27;81.73
31082;BME280;17737;52.586;13.284;2023-01-30T10:32:42;100075.03;;;5.30;80.62
31082;BME280;17737;52.586;13.284;2023-01-30T10:35:18;100066.34;;;5.28;79.97
31082;BME280;17737;52.586;13.284;2023-01-30T10:37:57;100069.69;;;5.30;79.90
31082;BME280;17737;52.586;13.284;2023-01-30T10:40:36;100052.16;;;5.28;78.82
31082;BME280;17737;52.586;13.284;2023-01-30T10:43:14;100060.19;;;5.28;78.62
31082;BME280;17737;52.586;13.284;2023-01-30T10:45:57;100066.34;;;5.28;78.09
31082;BME280;17737;52.586;13.284;2023-01-30T10:48:45;100052.59;;;5.23;78.03
31082;BME280;17737;52.586;13.284;2023-01-30T10:51:32;100058.56;;;5.17;78.18
31082;BME280;17737;52.586;13.284;2023-01-30T10:54:12;100052.06;;;5.20;77.21
31082;BME280;17737;52.586;13.284;2023-01-30T10:56:50;100046.41;;;5.23;77.99
31082;BME280;17737;52.586;13.284;2023-01-30T10:59:33;100040.16;;;5.32;77.27
31082;BME280;17737;52.586;13.284;2023-01-30T11:02:22;100033.47;;;5.28;77.02
31082;BME280;17737;52.586;13.284;2023-01-30T11:04:56;100034.44;;;5.27;76.81
31082;BME280;17737;52.586;13.284;2023-01-30T11:07:29;100032.00;;;5.33;76.55
31082;BME280;17737;52.586;13.284;2023-01-30T11:09:59;100018.03;;;5.39;76.46
31082;BME280;17737;52.586;13.284;2023-01-30T11:12:27;100008.88;;;5.42;76.52
31082;BME280;17737;52.586;13.284;2023-01-30T11:14:57;100001.31;;;5.55;76.13
31082;BME280;17737;52.586;13.284;2023-01-30T11:17:31;100013.19;;;5.60;75.39
31082;BME280;17737;52.586;13.284;2023-01-30T11:20:06;100008.41;;;5.64;75.55
31082;BME280;17737;52.586;13.284;2023-01-30T11:22:45;99998.22;;;5.67;75.72
31082;BME280;17737;52.586;13.284;2023-01-30T11:25:16;99989.53;;;5.65;74.78
31082;BME280;17737;52.586;13.284;2023-01-30T11:27:52;99989.25;;;5.68;75.56
31082;BME280;17737;52.586;13.284;2023-01-30T11:30:26;99995.13;;;5.54;76.19
31082;BME280;17737;52.586;13.284;2023-01-30T11:33:05;99980.56;;;5.49;76.13
31082;BME280;17737;52.586;13.284;2023-01-30T11:35:43;99995.34;;;5.43;76.51
31082;BME280;17737;52.586;13.284;2023-01-30T11:38:22;99985.84;;;5.41;76.05
31082;BME280;17737;52.586;13.284;2023-01-30T11:41:05;99974.31;;;5.40;76.66
31082;BME280;17737;52.586;13.284;2023-01-30T11:43:44;99983.81;;;5.60;75.76
31082;BME280;17737;52.586;13.284;2023-01-30T11:46:16;99979.84;;;5.64;75.71
31082;BME280;17737;52.586;13.284;2023-01-30T11:48:49;99959.59;;;5.62;75.14
31082;BME280;17737;52.586;13.284;2023-01-30T11:51:43;99980.28;;;5.34;75.40
31082;BME280;17737;52.586;13.284;2023-01-30T11:54:16;99973.22;;;4.63;81.55
31082;BME280;17737;52.586;13.284;2023-01-30T11:56:48;99983.34;;;4.23;85.46
31082;BME280;17737;52.586;13.284;2023-01-30T11:59:23;99976.22;;;4.23;86.34
31082;BME280;17737;52.586;13.284;2023-01-30T12:02:04;99976.50;;;4.20;85.12
31082;BME280;17737;52.586;13.284;2023-01-30T12:04:43;99962.50;;;4.09;85.23
31082;BME280;17737;52.586;13.284;2023-01-30T12:07:18;99961.44;;;4.02;85.58
31082;BME280;17737;52.586;13.284;2023-01-30T12:09:49;99951.00;;;4.08;86.14
31082;BME280;17737;52.586;13.284;2023-01-30T12:12:30;99959.88;;;4.36;84.66
31082;BME280;17737;52.586;13.284;2023-01-30T12:15:05;99964.00;;;4.48;85.19
31082;BME280;17737;52.586;13.284;2023-01-30T12:17:51;99953.59;;;4.54;83.85
31082;BME280;17737;52.586;13.284;2023-01-30T12:20:32;99952.47;;;4.74;82.23
31082;BME280;17737;52.586;13.284;2023-01-30T12:23:16;99935.69;;;4.82;83.66
31082;BME280;17737;52.586;13.284;2023-01-30T12:25:56;99943.50;;;4.93;82.95
31082;BME280;17737;52.586;13.284;2023-01-30T12:28:33;99927.13;;;5.06;82.26
31082;BME280;17737;52.586;13.284;2023-01-30T12:31:11;99922.69;;;5.14;82.01
31082;BME280;17737;52.586;13.284;2023-01-30T12:33:44;99913.66;;;5.33;80.61
31082;BME280;17737;52.586;13.284;2023-01-30T12:36:23;99902.47;;;5.55;77.86
31082;BME280;17737;52.586;13.284;2023-01-30T12:39:13;99907.53;;;5.66;76.29
31082;BME280;17737;52.586;13.284;2023-01-30T12:42:10;99895.75;;;5.76;75.85
31082;BME280;17737;52.586;13.284;2023-01-30T12:45:14;99890.47;;;5.84;75.06
31082;BME280;17737;52.586;13.284;2023-01-30T12:48:21;99884.72;;;5.79;74.68
31082;BME280;17737;52.586;13.284;2023-01-30T12:51:36;99897.50;;;5.85;75.70
31082;BME280;17737;52.586;13.284;2023-01-30T12:54:31;99901.16;;;5.84;74.81
31082;BME280;17737;52.586;13.284;2023-01-30T12:57:23;99882.22;;;5.78;75.16
31082;BME280;17737;52.586;13.284;2023-01-30T13:00:13;99899.78;;;5.80;75.11
31082;BME280;17737;52.586;13.284;2023-01-30T13:03:21;99887.97;;;5.83;75.82
31082;BME280;17737;52.586;13.284;2023-01-30T13:06:07;99887.53;;;5.70;74.87
31082;BME280;17737;52.586;13.284;2023-01-30T13:09:12;99877.53;;;5.72;73.66
31082;BME280;17737;52.586;13.284;2023-01-30T13:12:01;99881.16;;;5.71;72.91
31082;BME280;17737;52.586;13.284;2023-01-30T13:14:47;99891.00;;;5.70;74.18
31082;BME280;17737;52.586;13.284;2023-01-30T13:17:58;99877.53;;;5.72;72.67
31082;BME280;17737;52.586;13.284;2023-01-30T13:20:51;99877.88;;;5.77;73.35
31082;BME280;17737;52.586;13.284;2023-01-30T13:23:39;99874.72;;;5.81;73.24
31082;BME280;17737;52.586;13.284;2023-01-30T13:26:26;99873.13;;;5.88;72.04
31082;BME280;17737;52.586;13.284;2023-01-30T13:29:04;99867.78;;;5.88;70.96
31082;BME280;17737;52.586;13.284;2023-01-30T13:31:51;99864.59;;;5.85;71.10
31082;BME280;17737;52.586;13.284;2023-01-30T13:34:41;99860.25;;;5.84;71.62
31082;BME280;17737;52.586;13.284;2023-01-30T13:37:16;99861.34;;;5.81;71.29